SBFL/FLN METAR and TAF weather

Enter ICAO airport designator
Station Type Date Time Source
SBFL METAR 2020/01/23 15:30 UTC NOAA

SBFL 231530Z 13012KT 3000 -RA BKN013 BKN020 21/21 Q1012


Station Type Date Time Source
SBFL Decoded METAR 2020/01/23 15:30 UTC NOAA

Florianopolis Aeroporto , Brazil (SBFL) 27-40S 048-33W 5M
Jan 23, 2020 - 10:30 AM EST / 2020.01.23 1530 UTC
Wind: from the SE (130 degrees) at 14 MPH (12 KT):0
Visibility: 1 mile(s):0
Sky conditions: mostly cloudy
Weather: light rain
Temperature: 69 F (21 C)
Dew Point: 69 F (21 C)
Relative Humidity: 100%
Pressure (altimeter): 29.88 in. Hg (1012 hPa)
ob: SBFL 231530Z 13012KT 3000 -RA BKN013 BKN020 21/21 Q1012
cycle: 15

Station Type Date Time Source
SBFL TAF 2020/01/23 12:51 UTC NOAA

TAF SBFL 230945Z 2312/2412 18007KT 9999 BKN025 TX24/2318Z TN21/2408Z
TEMPO 2312/2318 7000 RA BKN010 BKN020
RMK PEB

Example: see airport list